createdAt,value
2023-05-18T00:01:56.502Z,26.98
2023-05-18T00:04:06.181Z,26.72
2023-05-18T00:06:15.658Z,26.87
2023-05-18T00:08:25.109Z,26.82
2023-05-18T00:10:34.299Z,26.83
2023-05-18T00:12:43.745Z,26.53
2023-05-18T00:14:52.968Z,26.62
2023-05-18T00:17:03.479Z,26.57
2023-05-18T00:19:15.319Z,26.69
2023-05-18T00:21:30.889Z,26.64
2023-05-18T00:23:40.529Z,26.24
2023-05-18T00:25:50.086Z,26.15
2023-05-18T00:27:59.225Z,26.26
2023-05-18T00:30:09.850Z,26.24
2023-05-18T00:32:19.264Z,26.23
2023-05-18T00:34:28.901Z,26.38
2023-05-18T00:36:39.229Z,26.28
2023-05-18T00:38:48.592Z,26.45
2023-05-18T00:40:57.773Z,26.52
2023-05-18T00:43:07.211Z,26.78
2023-05-18T00:45:16.815Z,27.08
2023-05-18T00:47:26.040Z,27.16
2023-05-18T00:49:35.210Z,27.26
2023-05-18T00:51:48.132Z,27.24
2023-05-18T00:53:58.506Z,27.17
2023-05-18T00:56:08.913Z,27.01
2023-05-18T00:58:18.808Z,27.02
2023-05-18T01:00:28.785Z,27.17
2023-05-18T01:02:43.177Z,27.26
2023-05-18T01:04:53.326Z,27.26
2023-05-18T01:07:07.122Z,27.33
2023-05-18T01:09:17.013Z,27.39
2023-05-18T01:11:35.563Z,27.33
2023-05-18T01:13:55.801Z,27.54
2023-05-18T01:16:08.478Z,27.47
2023-05-18T01:18:25.406Z,27.72
2023-05-18T01:20:39.400Z,27.71
2023-05-18T01:23:01.893Z,27.72
2023-05-18T01:25:20.080Z,28.06
2023-05-18T01:27:29.549Z,28.12
2023-05-18T01:29:40.072Z,27.95
2023-05-18T01:31:47.904Z,28.06
2023-05-18T01:33:57.135Z,28.07
2023-05-18T01:36:07.024Z,28.41
2023-05-18T01:38:17.016Z,28.64
2023-05-18T01:40:30.050Z,28.79
2023-05-18T01:42:46.675Z,28.62
2023-05-18T01:45:04.346Z,28.58
2023-05-18T01:47:17.428Z,28.15
2023-05-18T01:49:32.875Z,28.25
2023-05-18T01:51:47.885Z,28.13
2023-05-18T01:54:04.980Z,28.20
2023-05-18T01:56:15.979Z,27.96
2023-05-18T01:58:23.969Z,27.72
2023-05-18T02:00:33.323Z,27.80
2023-05-18T02:02:43.048Z,27.66
2023-05-18T02:04:53.059Z,27.65
2023-05-18T02:07:02.469Z,27.65
2023-05-18T02:09:12.566Z,27.82
2023-05-18T02:11:22.227Z,27.63
2023-05-18T02:13:31.491Z,27.59
2023-05-18T02:15:40.598Z,27.55
2023-05-18T02:17:49.974Z,27.35
2023-05-18T02:19:59.081Z,27.31
2023-05-18T02:22:09.283Z,27.16
2023-05-18T02:24:19.250Z,27.12
2023-05-18T02:26:28.285Z,27.08
2023-05-18T02:28:40.218Z,27.17
2023-05-18T02:30:49.693Z,27.15
2023-05-18T02:32:58.789Z,27.50
2023-05-18T02:35:09.698Z,27.14
2023-05-18T02:37:19.549Z,27.23
2023-05-18T02:39:29.171Z,26.98
2023-05-18T02:41:39.200Z,26.77
2023-05-18T02:43:48.783Z,26.64
2023-05-18T02:45:58.304Z,26.67
2023-05-18T02:48:08.006Z,27.12
2023-05-18T02:50:18.268Z,27.06
2023-05-18T02:52:28.143Z,27.00
2023-05-18T02:54:37.697Z,27.34
2023-05-18T02:56:49.337Z,27.40
2023-05-18T02:59:19.185Z,27.44
2023-05-18T03:01:29.322Z,27.43
2023-05-18T03:03:38.717Z,27.40
2023-05-18T03:05:47.967Z,27.40
2023-05-18T03:07:58.039Z,27.47
2023-05-18T03:10:09.340Z,27.71
2023-05-18T03:12:16.847Z,27.87
2023-05-18T03:14:25.916Z,27.81
2023-05-18T03:16:39.127Z,27.92
2023-05-18T03:18:52.402Z,28.05
2023-05-18T03:21:02.380Z,28.25
2023-05-18T03:23:12.128Z,28.33
2023-05-18T03:25:22.843Z,28.60
2023-05-18T03:27:32.177Z,28.60
2023-05-18T03:29:41.970Z,29.06
2023-05-18T03:31:51.627Z,29.16
2023-05-18T03:34:01.161Z,29.33
2023-05-18T03:36:13.367Z,29.72
2023-05-18T03:38:23.036Z,29.84
2023-05-18T03:40:39.102Z,29.96
2023-05-18T03:42:48.323Z,30.19
2023-05-18T03:44:57.540Z,30.37
2023-05-18T03:47:07.080Z,30.47
2023-05-18T03:49:16.216Z,30.84
2023-05-18T03:51:27.123Z,30.93
2023-05-18T03:53:36.613Z,31.19
2023-05-18T03:55:45.807Z,31.28
2023-05-18T03:57:55.339Z,31.48
2023-05-18T04:00:13.810Z,31.60
2023-05-18T04:02:24.255Z,31.66
2023-05-18T04:04:33.691Z,31.96
2023-05-18T04:06:42.703Z,32.13
2023-05-18T04:08:52.455Z,32.39
2023-05-18T04:11:01.635Z,32.77
2023-05-18T04:13:10.921Z,32.96
2023-05-18T04:15:20.182Z,33.11
2023-05-18T04:17:30.227Z,33.26
2023-05-18T04:19:40.795Z,33.40
2023-05-18T04:21:50.087Z,33.70
2023-05-18T04:24:03.292Z,33.95
2023-05-18T04:26:12.397Z,34.23
2023-05-18T04:28:21.730Z,34.62
2023-05-18T04:30:32.223Z,34.86
2023-05-18T04:32:43.403Z,34.99
2023-05-18T04:34:53.108Z,35.33
2023-05-18T04:37:03.477Z,35.56
2023-05-18T04:39:11.580Z,35.77
2023-05-18T04:41:22.588Z,36.06
2023-05-18T04:43:31.809Z,36.16
2023-05-18T04:45:41.849Z,36.22
2023-05-18T04:47:54.326Z,36.43
2023-05-18T04:50:04.448Z,36.67
2023-05-18T04:52:14.190Z,36.64
2023-05-18T04:54:23.698Z,36.98
2023-05-18T04:56:32.809Z,37.14
2023-05-18T04:58:46.155Z,37.41
2023-05-18T05:00:55.867Z,37.66
2023-05-18T05:03:07.665Z,37.85
2023-05-18T05:05:17.108Z,37.94
2023-05-18T05:07:26.669Z,38.03
2023-05-18T05:09:36.352Z,38.24
2023-05-18T05:11:45.873Z,38.37
2023-05-18T05:13:55.323Z,38.79
2023-05-18T05:16:04.897Z,38.72
2023-05-18T05:18:23.225Z,39.01
2023-05-18T05:20:32.398Z,38.86
2023-05-18T05:22:41.690Z,39.08
2023-05-18T05:24:51.110Z,39.38
2023-05-18T05:27:00.288Z,39.67
2023-05-18T05:29:09.418Z,39.63
2023-05-18T05:31:19.538Z,40.01
2023-05-18T05:33:30.217Z,40.03
2023-05-18T05:35:39.489Z,40.35
2023-05-18T05:37:48.981Z,40.35
2023-05-18T05:39:59.720Z,40.55
2023-05-18T05:42:10.684Z,40.72
2023-05-18T05:44:20.112Z,40.88
2023-05-18T05:46:29.607Z,41.03
2023-05-18T05:48:40.537Z,41.28
2023-05-18T05:50:50.565Z,41.43
2023-05-18T05:53:00.283Z,41.68
2023-05-18T05:55:11.558Z,41.81
2023-05-18T05:57:20.976Z,41.79
2023-05-18T05:59:30.262Z,42.03
2023-05-18T06:01:40.391Z,42.27
2023-05-18T06:03:49.935Z,42.41
2023-05-18T06:05:59.596Z,42.67
2023-05-18T06:08:10.293Z,42.71
2023-05-18T06:10:20.651Z,42.94
2023-05-18T06:12:30.343Z,43.27
2023-05-18T06:14:39.362Z,43.37
2023-05-18T06:16:49.249Z,43.63
2023-05-18T06:18:59.096Z,43.64
2023-05-18T06:21:08.361Z,43.70
2023-05-18T06:23:22.684Z,43.87
2023-05-18T06:25:37.761Z,44.03
2023-05-18T06:27:52.451Z,44.27
2023-05-18T06:30:22.125Z,44.47
2023-05-18T06:32:49.549Z,44.66
2023-05-18T06:34:58.834Z,44.80
2023-05-18T06:37:09.210Z,45.08
2023-05-18T06:39:18.346Z,45.00
2023-05-18T06:41:28.107Z,45.34
2023-05-18T06:43:37.269Z,45.49
2023-05-18T06:46:00.636Z,45.69
2023-05-18T06:48:17.573Z,46.14
2023-05-18T06:50:27.231Z,46.28
2023-05-18T06:52:37.228Z,46.48
2023-05-18T06:54:46.413Z,46.74
2023-05-18T06:56:56.782Z,46.86
2023-05-18T06:59:06.730Z,46.96
2023-05-18T07:01:16.353Z,47.11
2023-05-18T07:03:27.294Z,47.13
2023-05-18T07:05:39.186Z,47.32
2023-05-18T07:07:48.961Z,47.39
2023-05-18T07:09:59.337Z,47.46
2023-05-18T07:12:09.909Z,47.56
2023-05-18T07:14:18.973Z,47.69
2023-05-18T07:16:29.938Z,47.82
2023-05-18T07:18:40.292Z,47.95
2023-05-18T07:20:49.398Z,48.06
2023-05-18T07:22:58.587Z,48.11
2023-05-18T07:25:08.472Z,48.22
2023-05-18T07:27:18.844Z,48.41
2023-05-18T07:29:28.193Z,48.55
2023-05-18T07:31:39.453Z,48.59
2023-05-18T07:33:49.224Z,48.73
2023-05-18T07:35:58.847Z,48.85
2023-05-18T07:38:07.889Z,48.98
2023-05-18T07:40:17.274Z,49.11
2023-05-18T07:42:26.682Z,49.23
2023-05-18T07:44:36.044Z,49.35
2023-05-18T07:46:45.345Z,49.57
2023-05-18T07:48:54.955Z,49.67
2023-05-18T07:51:04.083Z,49.79
2023-05-18T07:53:13.368Z,49.93
2023-05-18T07:55:22.633Z,50.14
2023-05-18T07:57:31.893Z,50.19
2023-05-18T07:59:41.067Z,50.34
2023-05-18T08:01:50.534Z,50.48
2023-05-18T08:04:00.421Z,50.56
2023-05-18T08:06:10.094Z,50.73
2023-05-18T08:08:19.223Z,50.81
2023-05-18T08:10:29.172Z,50.92
2023-05-18T08:12:38.917Z,51.10
2023-05-18T08:14:48.059Z,51.17
2023-05-18T08:16:57.354Z,51.28
2023-05-18T08:19:06.627Z,51.41
2023-05-18T08:21:15.738Z,51.60
2023-05-18T08:23:25.380Z,51.65
2023-05-18T08:25:34.433Z,51.62
2023-05-18T08:27:43.520Z,51.78
2023-05-18T08:29:52.845Z,51.88
2023-05-18T08:32:02.002Z,52.12
2023-05-18T08:34:11.847Z,52.19
2023-05-18T08:36:21.438Z,52.34
2023-05-18T08:38:31.750Z,52.40
2023-05-18T08:40:45.047Z,52.54
2023-05-18T08:43:04.251Z,52.54
2023-05-18T08:45:17.251Z,52.79
2023-05-18T08:47:28.220Z,52.83
2023-05-18T08:49:38.268Z,52.98
2023-05-18T08:51:50.000Z,53.01
2023-05-18T08:54:00.457Z,53.15
2023-05-18T08:56:12.476Z,53.14
2023-05-18T08:58:29.289Z,53.24
2023-05-18T09:00:38.758Z,53.39
2023-05-18T09:02:49.429Z,53.55
2023-05-18T09:05:00.406Z,53.54
2023-05-18T09:07:10.927Z,53.66
2023-05-18T09:09:20.026Z,53.72
2023-05-18T09:11:31.175Z,53.84
2023-05-18T09:13:38.620Z,53.97
2023-05-18T09:15:47.974Z,54.10
2023-05-18T09:17:57.665Z,54.15
2023-05-18T09:20:07.873Z,54.30
2023-05-18T09:22:18.486Z,54.48
2023-05-18T09:24:28.367Z,54.70
2023-05-18T09:26:38.301Z,54.77
2023-05-18T09:28:49.803Z,54.83
2023-05-18T09:30:59.284Z,55.05
2023-05-18T09:33:17.591Z,55.11
2023-05-18T09:35:28.727Z,55.25
2023-05-18T09:37:38.189Z,55.39
2023-05-18T09:39:47.739Z,55.49
2023-05-18T09:42:00.607Z,55.56
2023-05-18T09:44:10.509Z,55.65
2023-05-18T09:46:21.155Z,55.71
2023-05-18T09:48:31.283Z,55.85
2023-05-18T09:50:40.431Z,55.82
2023-05-18T09:52:50.605Z,55.89
2023-05-18T09:55:04.925Z,55.97
2023-05-18T09:57:14.480Z,56.15
2023-05-18T09:59:24.848Z,56.24
2023-05-18T10:05:05.809Z,56.56
2023-05-18T10:07:28.394Z,56.59
2023-05-18T10:09:48.460Z,56.66
2023-05-18T10:12:04.210Z,56.72
2023-05-18T10:14:36.990Z,56.88
2023-05-18T10:16:51.667Z,56.97
2023-05-18T10:19:25.209Z,57.05
2023-05-18T10:21:46.475Z,56.98
2023-05-18T10:24:09.168Z,56.96
2023-05-18T10:26:24.848Z,57.13
2023-05-18T10:28:47.678Z,57.09
2023-05-18T10:31:01.594Z,57.16
2023-05-18T10:33:29.566Z,57.11
2023-05-18T10:36:00.533Z,57.20
2023-05-18T10:38:24.535Z,57.25
2023-05-18T10:40:56.536Z,57.44
2023-05-18T10:43:28.286Z,57.47
2023-05-18T10:45:54.323Z,57.65
2023-05-18T10:48:15.522Z,57.76
2023-05-18T10:50:29.857Z,57.77
2023-05-18T10:53:01.072Z,57.75
2023-05-18T10:55:31.874Z,57.99
2023-05-18T10:57:53.394Z,58.02
2023-05-18T11:00:09.660Z,58.00
2023-05-18T11:02:40.562Z,58.18
2023-05-18T11:04:58.026Z,58.11
2023-05-18T11:07:31.010Z,58.26
2023-05-18T11:10:02.785Z,58.30
2023-05-18T11:12:35.436Z,58.39
2023-05-18T11:15:05.738Z,58.52
2023-05-18T11:17:27.488Z,58.53
2023-05-18T11:19:38.451Z,58.65
2023-05-18T11:21:56.637Z,58.68
2023-05-18T11:24:26.823Z,58.76
2023-05-18T11:26:57.253Z,58.89
2023-05-18T11:29:32.085Z,58.98
2023-05-18T11:32:02.554Z,59.22
2023-05-18T11:34:45.518Z,59.36
2023-05-18T11:37:19.011Z,59.55
2023-05-18T11:40:11.632Z,59.77
2023-05-18T11:42:41.838Z,59.89
2023-05-18T11:45:10.439Z,59.98
2023-05-18T11:47:42.017Z,60.10
2023-05-18T11:50:14.426Z,60.21
2023-05-18T11:52:53.905Z,60.28
2023-05-18T11:55:07.858Z,60.27
2023-05-18T11:57:28.665Z,60.32
2023-05-18T12:00:01.576Z,60.44
2023-05-18T12:02:33.215Z,60.37
2023-05-18T12:05:03.772Z,60.42
2023-05-18T12:07:13.938Z,60.50
2023-05-18T12:09:45.996Z,60.51
2023-05-18T12:12:14.501Z,60.73
2023-05-18T12:14:45.516Z,60.73
2023-05-18T12:17:15.207Z,60.74
2023-05-18T12:19:49.930Z,60.84
2023-05-18T12:22:12.683Z,60.98
2023-05-18T12:24:32.676Z,61.01
2023-05-18T12:27:07.334Z,61.04
2023-05-18T12:29:39.672Z,61.06
2023-05-18T12:31:59.485Z,61.09
2023-05-18T12:34:32.325Z,61.03
2023-05-18T12:36:53.710Z,61.03
2023-05-18T12:39:23.486Z,60.86
2023-05-18T12:41:52.815Z,60.85
2023-05-18T12:44:22.884Z,60.83
2023-05-18T12:46:54.224Z,60.69
2023-05-18T12:49:07.489Z,60.66
2023-05-18T12:51:31.255Z,60.67
2023-05-18T12:53:52.434Z,60.63
2023-05-18T12:56:21.578Z,60.50
2023-05-18T12:59:04.862Z,60.38
2023-05-18T13:01:18.425Z,60.10
2023-05-18T13:03:27.878Z,59.99
2023-05-18T13:05:37.373Z,59.94
2023-05-18T13:07:57.756Z,59.76
2023-05-18T13:10:21.003Z,59.62
2023-05-18T13:12:52.761Z,59.55
2023-05-18T13:15:20.336Z,59.54
2023-05-18T13:18:03.363Z,59.48
2023-05-18T13:20:37.952Z,59.35
2023-05-18T13:23:01.132Z,59.43
2023-05-18T13:25:30.980Z,59.31
2023-05-18T13:27:56.351Z,59.27
2023-05-18T13:30:06.077Z,59.15
2023-05-18T13:32:35.531Z,59.19
2023-05-18T13:34:48.520Z,59.17
2023-05-18T13:37:09.431Z,59.06
2023-05-18T13:39:39.668Z,59.00
2023-05-18T13:42:10.567Z,59.02
2023-05-18T13:44:39.874Z,59.00
2023-05-18T13:47:00.850Z,58.95
2023-05-18T13:49:20.429Z,58.73
2023-05-18T13:51:40.469Z,58.76
2023-05-18T13:54:10.421Z,58.81
2023-05-18T13:56:39.751Z,58.69
2023-05-18T13:59:09.161Z,58.63
2023-05-18T14:01:33.281Z,58.67
2023-05-18T14:03:45.872Z,58.85
2023-05-18T14:06:15.462Z,58.70
2023-05-18T14:08:44.881Z,58.63
2023-05-18T14:11:07.314Z,58.45
2023-05-18T14:13:26.721Z,58.51
2023-05-18T14:15:47.386Z,58.51
2023-05-18T14:18:07.026Z,58.55
2023-05-18T14:20:38.207Z,58.65
2023-05-18T14:23:00.700Z,58.85
2023-05-18T14:25:30.628Z,58.86
2023-05-18T14:28:00.195Z,59.04
2023-05-18T14:30:20.433Z,58.93
2023-05-18T14:32:33.142Z,58.85
2023-05-18T14:35:02.823Z,58.71
2023-05-18T14:37:15.362Z,58.80
2023-05-18T14:39:45.337Z,58.86
2023-05-18T14:41:54.956Z,58.90
2023-05-18T14:44:24.514Z,58.75
2023-05-18T14:46:54.242Z,58.76
2023-05-18T14:49:23.748Z,58.68
2023-05-18T14:51:45.015Z,58.67
2023-05-18T14:54:04.687Z,58.56
2023-05-18T14:56:34.270Z,58.37
2023-05-18T14:59:04.066Z,58.19
2023-05-18T15:01:24.419Z,58.03
2023-05-18T15:03:53.819Z,57.96
2023-05-18T15:06:16.399Z,57.71
2023-05-18T15:08:36.042Z,57.43
2023-05-18T15:11:05.378Z,57.25
2023-05-18T15:13:34.740Z,57.38
2023-05-18T15:16:04.195Z,57.35
2023-05-18T15:18:17.019Z,57.20
2023-05-18T15:20:47.177Z,57.05
2023-05-18T15:23:06.182Z,57.01
2023-05-18T15:25:25.524Z,56.96
2023-05-18T15:27:45.510Z,56.56
2023-05-18T15:30:16.154Z,56.51
2023-05-18T15:32:45.660Z,56.30
2023-05-18T15:35:16.783Z,56.13
2023-05-18T15:37:37.998Z,55.85
2023-05-18T15:40:08.629Z,55.65
2023-05-18T15:42:38.171Z,55.53
2023-05-18T15:45:08.475Z,55.49
2023-05-18T15:47:31.512Z,55.31
2023-05-18T15:49:44.415Z,54.91
2023-05-18T15:51:53.855Z,54.88
2023-05-18T15:54:13.215Z,54.69
2023-05-18T15:56:26.147Z,54.52
2023-05-18T15:58:39.182Z,54.47
2023-05-18T16:00:48.777Z,54.39
2023-05-18T16:02:58.467Z,53.92
2023-05-18T16:05:19.256Z,53.45
2023-05-18T16:07:31.438Z,53.29
2023-05-18T16:09:43.947Z,52.77
2023-05-18T16:11:54.121Z,52.84
2023-05-18T16:14:13.833Z,52.62
2023-05-18T16:16:33.134Z,52.39
2023-05-18T16:19:03.392Z,52.29
2023-05-18T16:21:15.277Z,51.89
2023-05-18T16:23:27.792Z,51.48
2023-05-18T16:25:47.135Z,51.35
2023-05-18T16:28:16.569Z,51.22
2023-05-18T16:30:26.483Z,51.12
2023-05-18T16:32:39.194Z,51.11
2023-05-18T16:34:48.849Z,51.09
2023-05-18T16:37:01.410Z,51.10
2023-05-18T16:39:30.925Z,51.31
2023-05-18T16:41:49.689Z,51.02
2023-05-18T16:44:09.677Z,50.36
2023-05-18T16:46:22.169Z,50.04
2023-05-18T16:48:31.818Z,49.62
2023-05-18T16:51:01.236Z,49.41
2023-05-18T16:53:23.766Z,49.15
2023-05-18T16:55:45.210Z,48.96
2023-05-18T16:57:57.816Z,48.59
2023-05-18T17:00:27.496Z,48.31
2023-05-18T17:02:40.784Z,48.11
2023-05-18T17:05:11.668Z,47.76
2023-05-18T17:07:23.361Z,47.52
2023-05-18T17:09:43.112Z,47.41
2023-05-18T17:11:52.782Z,47.10
2023-05-18T17:14:05.460Z,47.06
2023-05-18T17:16:20.409Z,46.91
2023-05-18T17:18:50.115Z,46.78
2023-05-18T17:21:03.253Z,46.74
2023-05-18T17:23:17.741Z,46.61
2023-05-18T17:25:27.448Z,46.38
2023-05-18T17:27:36.804Z,46.60
2023-05-18T17:29:46.204Z,46.52
2023-05-18T17:31:58.223Z,46.79
2023-05-18T17:34:11.769Z,46.33
2023-05-18T17:36:42.818Z,46.25
2023-05-18T17:38:52.926Z,46.22
2023-05-18T17:41:11.825Z,46.14
2023-05-18T17:43:32.527Z,46.04
2023-05-18T17:45:52.087Z,45.84
2023-05-18T17:48:01.521Z,45.82
2023-05-18T17:50:13.942Z,45.85
2023-05-18T17:52:43.302Z,45.81
2023-05-18T17:54:58.262Z,45.42
2023-05-18T17:57:13.507Z,44.77
2023-05-18T17:59:26.418Z,44.76
2023-05-18T18:01:46.041Z,44.80
2023-05-18T18:04:05.639Z,44.83
2023-05-18T18:06:36.146Z,44.41
2023-05-18T18:09:06.280Z,44.13
2023-05-18T18:11:19.055Z,43.86
2023-05-18T18:13:48.894Z,43.69
2023-05-18T18:15:58.409Z,43.66
2023-05-18T18:18:08.304Z,43.61
2023-05-18T18:20:27.528Z,43.65
2023-05-18T18:22:47.891Z,43.62
2023-05-18T18:25:00.067Z,43.22
2023-05-18T18:27:19.832Z,43.02
2023-05-18T18:29:49.744Z,42.40
2023-05-18T18:32:10.317Z,42.47
2023-05-18T18:34:30.860Z,42.24
2023-05-18T18:36:51.143Z,42.17
2023-05-18T18:39:04.430Z,42.03
2023-05-18T18:41:18.031Z,41.84
2023-05-18T18:43:28.024Z,41.41
2023-05-18T18:45:58.274Z,41.55
2023-05-18T18:48:11.217Z,41.90
2023-05-18T18:50:34.690Z,41.89
2023-05-18T18:52:55.376Z,41.67
2023-05-18T18:55:25.470Z,41.50
2023-05-18T18:57:38.333Z,41.38
2023-05-18T19:00:11.410Z,41.12
2023-05-18T19:02:21.566Z,40.96
2023-05-18T19:04:49.766Z,41.08
2023-05-18T19:07:09.695Z,41.01
2023-05-18T19:09:19.258Z,41.08
2023-05-18T19:11:28.675Z,40.78
2023-05-18T19:13:55.129Z,40.43
2023-05-18T19:16:24.676Z,40.18
2023-05-18T19:18:47.445Z,40.09
2023-05-18T19:21:07.197Z,40.03
2023-05-18T19:23:36.970Z,39.80
2023-05-18T19:25:49.577Z,39.81
2023-05-18T19:28:19.059Z,39.92
2023-05-18T19:30:39.633Z,39.77
2023-05-18T19:33:08.979Z,39.63
2023-05-18T19:35:38.491Z,39.39
2023-05-18T19:38:07.982Z,39.29
2023-05-18T19:40:29.322Z,38.89
2023-05-18T19:42:49.818Z,39.11
2023-05-18T19:45:09.726Z,39.13
2023-05-18T19:47:27.944Z,39.03
2023-05-18T19:49:48.885Z,38.99
2023-05-18T19:52:11.479Z,38.84
2023-05-18T19:54:30.846Z,38.78
2023-05-18T19:56:43.371Z,38.63
2023-05-18T19:58:58.270Z,38.05
2023-05-18T20:01:27.548Z,38.25
2023-05-18T20:03:59.598Z,38.03
2023-05-18T20:06:12.695Z,38.19
2023-05-18T20:08:22.754Z,38.17
2023-05-18T20:10:54.259Z,38.18
2023-05-18T20:13:14.382Z,38.23
2023-05-18T20:15:37.404Z,38.42
2023-05-18T20:17:50.118Z,38.25
2023-05-18T20:20:02.354Z,38.22
2023-05-18T20:22:22.534Z,38.08
2023-05-18T20:24:36.826Z,37.89
2023-05-18T20:27:06.655Z,37.76
2023-05-18T20:29:26.741Z,37.46
2023-05-18T20:31:39.626Z,37.24
2023-05-18T20:33:49.285Z,37.14
2023-05-18T20:36:19.557Z,37.07
2023-05-18T20:38:49.888Z,37.32
2023-05-18T20:41:00.041Z,37.50
2023-05-18T20:43:18.269Z,37.44
2023-05-18T20:45:49.566Z,37.43
2023-05-18T20:48:02.420Z,37.18
2023-05-18T20:50:23.398Z,36.85
2023-05-18T20:52:54.036Z,36.70
2023-05-18T20:55:24.239Z,36.69
2023-05-18T20:57:54.032Z,36.28
2023-05-18T21:00:23.955Z,36.36
2023-05-18T21:02:34.136Z,36.65
2023-05-18T21:04:53.523Z,36.52
2023-05-18T21:07:12.876Z,36.26
2023-05-18T21:09:42.892Z,36.32
2023-05-18T21:12:12.789Z,36.13
2023-05-18T21:14:43.554Z,35.91
2023-05-18T21:16:53.093Z,36.28
2023-05-18T21:19:10.082Z,36.36
2023-05-18T21:21:19.771Z,36.39
2023-05-18T21:23:29.215Z,36.73
2023-05-18T21:25:38.720Z,36.48
2023-05-18T21:27:57.988Z,36.42
2023-05-18T21:30:08.385Z,36.43
2023-05-18T21:32:37.923Z,36.66
2023-05-18T21:34:47.767Z,36.29
2023-05-18T21:36:57.833Z,36.58
2023-05-18T21:39:10.037Z,36.37
2023-05-18T21:41:40.749Z,36.31
2023-05-18T21:43:50.174Z,36.57
2023-05-18T21:46:19.855Z,36.63
2023-05-18T21:48:32.545Z,36.28
2023-05-18T21:50:52.740Z,36.16
2023-05-18T21:53:15.138Z,35.90
2023-05-18T21:55:44.664Z,36.21
2023-05-18T21:58:03.305Z,36.48
2023-05-18T22:00:17.061Z,36.40
2023-05-18T22:02:26.228Z,36.24
2023-05-18T22:04:45.603Z,36.28
2023-05-18T22:07:15.062Z,36.33
2023-05-18T22:09:44.640Z,36.45
2023-05-18T22:11:55.095Z,36.39
2023-05-18T22:14:18.207Z,36.62
2023-05-18T22:16:47.799Z,37.05
2023-05-18T22:19:17.732Z,37.09
2023-05-18T22:21:47.077Z,36.99
2023-05-18T22:24:16.810Z,36.74
2023-05-18T22:26:29.501Z,36.80
2023-05-18T22:28:58.960Z,36.66
2023-05-18T22:31:18.486Z,36.42
2023-05-18T22:33:28.155Z,36.55
2023-05-18T22:35:57.946Z,36.59
2023-05-18T22:38:18.258Z,36.48
2023-05-18T22:40:37.988Z,36.22
2023-05-18T22:42:47.591Z,36.32
2023-05-18T22:44:57.318Z,35.97
2023-05-18T22:47:07.007Z,36.10
2023-05-18T22:49:16.329Z,36.13
2023-05-18T22:51:36.702Z,35.99
2023-05-18T22:54:05.984Z,35.90
2023-05-18T22:56:35.307Z,36.01
2023-05-18T22:58:44.671Z,36.18
2023-05-18T23:00:54.252Z,36.50
2023-05-18T23:03:03.734Z,36.78
2023-05-18T23:05:13.648Z,36.38
2023-05-18T23:07:36.572Z,36.17
2023-05-18T23:10:06.681Z,36.26
2023-05-18T23:12:30.701Z,36.37
2023-05-18T23:15:02.876Z,36.57
2023-05-18T23:17:31.316Z,36.69
2023-05-18T23:19:51.024Z,36.70
2023-05-18T23:22:20.493Z,36.77
2023-05-18T23:24:29.933Z,36.55
2023-05-18T23:26:49.518Z,36.72
2023-05-18T23:28:59.034Z,36.71
2023-05-18T23:31:17.937Z,36.45
2023-05-18T23:33:39.742Z,36.44
2023-05-18T23:35:51.483Z,35.84
2023-05-18T23:38:22.443Z,36.02
2023-05-18T23:40:43.133Z,35.93
2023-05-18T23:43:13.566Z,36.27
2023-05-18T23:45:44.436Z,36.54
2023-05-18T23:48:15.676Z,36.93
2023-05-18T23:50:33.946Z,37.15
2023-05-18T23:52:47.934Z,37.14
2023-05-18T23:55:17.738Z,37.15
2023-05-18T23:57:48.220Z,37.26
